Tiempo atmosférico en la estación meteorológica de Ribadeo, Lugo (43 m.)



Fecha
DESCASC
Temp. máxima en grados centígrados (hora)
DESCASC
Temp. mínima en grados centígrados (hora)
DESCASC
Temp. media en grados centígrados
DESCASC
Racha de viento máxima en m/sg (hora)
DESCASC
Velocidad máxima media en intervalos de 10 minutos(hora)
DESCASC
Precipitaciones diarias en mm
DESCASC
Precipitaciones de 00:00 a 06:00 en mm
DESCASC
Precipitaciones de 06:00 a 12:00 en mm
DESCASC
Precipitaciones de 12:00 a 18:00 en mm
DESCASC
Precipitaciones de 18:00 a 24:00 en mm
DESCASC
31-07-2019 21.5 (15:00) 11.1 (00:00) 16.3 9.44 (18:40) 5.83 (18:40) 0 0 0 0 0
13-08-2019 21.4 (15:30) 11.4 (00:00) 16.4 7.22 (18:20) 4.72 (17:10) 0 0 0 0 0
19-08-2019 21 (17:10) 13 (00:00) 17 8.33 (23:50) 5 (23:50) 0 0 0 0 0
30-07-2019 21 (15:40) 13.4 (00:00) 17.2 7.5 (17:00) 5 (05:50) 0 0 0 0 0
12-08-2019 20.9 (15:30) 14.2 (00:00) 17.5 6.11 (10:40) 3.61 (10:40) 0 0 0 0 0
27-07-2019 20.3 (16:40) 15.2 (00:00) 17.7 5 (18:30) 3.06 (14:30) 11 0.8 10.2 0 0
28-07-2019 22.6 (18:00) 13 (00:00) 17.8 8.61 (17:30) 6.11 (17:30) 0 0 0 0 0
16-08-2019 23.2 (18:30) 12.6 (00:00) 17.9 5.56 (14:20) 3.33 (04:10) 0 0 0 0 0
11-08-2019 22.4 (13:00) 13.7 (00:00) 18 10.28 (14:10) 4.72 (14:00) 15.2 0 0 12 3.2
21-08-2019 22.6 (15:30) 13.7 (00:00) 18.2 11.67 (16:00) 5.56 (13:00) 0 0 0 0 0
15-08-2019 22 (16:20) 14.4 (00:00) 18.2 6.39 (16:00) 4.17 (18:10) 0 0 0 0 0
26-07-2019 21.4 (11:40) 16.5 (00:00) 18.9 7.5 (05:30) 4.17 (05:30) 1.6 0 0 0 1.6
22-08-2019 23.4 (18:00) 14.5 (00:00) 18.9 10.56 (17:10) 6.39 (18:10) 0 0 0 0 0
20-08-2019 21.8 (17:00) 16.4 (00:00) 19.1 12.22 (20:00) 7.5 (15:30) 4.2 1.4 2.8 0 0
24-08-2019 22.2 (15:20) 16.4 (00:00) 19.3 6.39 (14:20) 3.61 (14:00) 0 0 0 0 0
18-08-2019 23.2 (04:10) 15.3 (00:00) 19.3 13.61 (04:50) 7.5 (05:00) 19.8 5 14.8 0 0
02-08-2019 23.1 (15:50) 15.5 (00:00) 19.3 9.17 (17:50) 6.11 (17:50) 0 0 0 0 0
01-08-2019 20.9 (11:10) 18.3 (00:00) 19.6 10 (12:50) 6.11 (13:10) 0 0 0 0 0
05-08-2019 24.6 (13:10) 15.6 (00:00) 20.1 5.83 (16:00) 3.61 (16:30) 0 0 0 0 0
14-08-2019 26 (13:50) 14.3 (00:00) 20.2 9.72 (09:20) 6.11 (10:20) 0 0 0 0 0
29-07-2019 24.3 (15:20) 16.8 (00:00) 20.5 15.28 (16:20) 10 (16:20) 0 0 0 0 0
10-08-2019 23.5 (12:10) 17.8 (00:00) 20.6 9.44 (12:30) 5.56 (10:30) 0 0 0 0 0
03-08-2019 23.6 (14:50) 18.1 (00:00) 20.9 5.56 (16:30) 3.33 (16:10) 0 0 0 0 0
07-08-2019 24.7 (13:10) 17.3 (00:00) 21 6.94 (08:20) 4.72 (08:00) 4.8 0.2 0 0.8 3.8
04-08-2019 23.7 (14:20) 18.7 (00:00) 21.2 6.39 (16:10) 3.61 (15:40) 0 0 0 0 0
23-08-2019 28.2 (15:00) 15.1 (00:00) 21.7 4.44 (16:50) 2.78 (13:50) 0 0 0 0 0
06-08-2019 26.5 (13:50) 17 (00:00) 21.8 6.39 (13:50) 4.17 (13:50) 0.4 0 0 0 0.4
09-08-2019 27.3 (16:10) 19.5 (00:00) 23.4 21.11 (14:20) 9.17 (15:50) 0.6 0.6 0 0 0
17-08-2019 31.7 (17:10) 17.5 (00:00) 24.6 12.22 (10:00) 7.22 (09:50) 0 0 0 0 0
08-08-2019 30.8 (13:40) 19.8 (00:00) 25.3 15.83 (20:00) 8.06 (22:50) 0.4 0.4 0 0 0

Gráficas

Temp. máximas Temp. mínimas Temp. medias Precipitaciones Rachas de viento máximas Velocidades máximas media en intervalos de 10 minutos

Datos horarios

Fecha y hora oficial Temperatura (ºC) Velocidad del viento (km/h) Dirección del viento Racha (km/h) Dirección de racha Precipitación (mm) Presión (hPa) Tendencia (hPa) Humedad (%)
2019-08-24 23:00:00 18.7 2 Este 8 Nordeste 0 -- -- 82
2019-08-24 22:00:00 18.9 0 Calma 7 Noroeste 0 -- -- 83
2019-08-24 21:00:00 19 4 Noroeste 9 Noroeste 0 -- -- 81
2019-08-24 20:00:00 19.6 5 Noroeste 11 Noroeste 0 -- -- 76
2019-08-24 19:00:00 20 6 Noroeste 14 Noroeste 0 -- -- 75
2019-08-24 18:00:00 20.9 8 Noroeste 18 Norte 0 -- -- 73
2019-08-24 17:00:00 21.5 8 Norte 20 Noroeste 0 -- -- 71
2019-08-24 16:00:00 21.8 11 Noroeste 18 Noroeste 0 -- -- 72
2019-08-24 15:00:00 21.2 9 Noroeste 23 Noroeste 0 -- -- 74
2019-08-24 14:00:00 20.8 13 Noroeste 21 Norte 0 -- -- 74
2019-08-24 13:00:00 21.2 9 Noroeste 18 Noroeste 0 -- -- 75
2019-08-24 12:00:00 20 9 Noroeste 17 Noroeste 0 -- -- 81
2019-08-24 11:00:00 19.5 6 Norte 13 Norte 0 -- -- 87
2019-08-24 10:00:00 19.6 5 Este 9 Este 0 -- -- 88
2019-08-24 09:00:00 18.3 3 Sudeste 9 Sudeste 0 -- -- 93
2019-08-24 08:00:00 17.9 5 Sudeste 12 Sudeste 0 -- -- 93
2019-08-24 07:00:00 17.9 5 Sudeste 12 Sudeste 0 -- -- 93
2019-08-24 06:00:00 18.1 6 Sudeste 13 Sudeste 0 -- -- 93
2019-08-24 05:00:00 18.4 6 Sudeste 13 Sudeste 0 -- -- 94
2019-08-24 04:00:00 18.5 7 Sudeste 13 Sudeste 0 -- -- 95
2019-08-24 03:00:00 17.7 5 Sudeste 9 Sudeste 0 -- -- 96
2019-08-24 02:00:00 16.5 6 Sudeste 9 Sudeste 0 -- -- 90
2019-08-24 01:00:00 17.6 4 Sur 9 Oeste 0 -- -- 88
2019-08-24 00:00:00 18.7 5 Oeste 8 Oeste 0 -- -- 81
2019-08-23 23:00:00 19.8 5 Oeste 8 Oeste 0 -- -- 75
2019-08-23 22:00:00 20.7 0 Calma 4 Sur 0 -- -- 72
2019-08-23 21:00:00 23.1 0 Calma 4 Nordeste 0 -- -- 79
2019-08-23 20:00:00 23.7 2 Nordeste 7 Norte 0 -- -- 74
2019-08-23 19:00:00 24.2 5 Nordeste 9 Nordeste 0 -- -- 72
2019-08-23 18:00:00 24.8 6 Nordeste 14 Norte 0 -- -- 69
2019-08-23 17:00:00 25 9 Noroeste 16 Oeste 0 -- -- 69
2019-08-23 16:00:00 26.7 7 Nordeste 12 Nordeste 0 -- -- 55
2019-08-23 15:00:00 28.2 6 Norte 14 Este 0 -- -- 51
2019-08-23 14:00:00 26.7 9 Nordeste 13 Este 0 -- -- 60
2019-08-23 13:00:00 26 6 Nordeste 10 Norte 0 -- -- 67
2019-08-23 12:00:00 24.6 5 Norte 9 Noroeste 0 -- -- 73
2019-08-23 11:00:00 22.3 4 Noroeste 6 Noroeste 0 -- -- 82
2019-08-23 10:00:00 20.3 0 Calma 4 Nordeste 0 -- -- 91
2019-08-23 09:00:00 17.8 0 Calma 5 Sur 0 -- -- 99
2019-08-23 08:00:00 15.1 2 Sur 8 Sudeste 0 -- -- 98
2019-08-23 07:00:00 15.4 5 Sur 9 Sudeste 0 -- -- 97
2019-08-23 06:00:00 15.6 5 Sur 9 Sudeste 0 -- -- 98
2019-08-23 05:00:00 15.9 7 Sur 10 Sudeste 0 -- -- 97
2019-08-23 04:00:00 15.7 4 Sur 8 Sur 0 -- -- 96
2019-08-23 03:00:00 16.1 8 Sur 9 Sur 0 -- -- 97
2019-08-23 02:00:00 16.3 6 Sudeste 9 Sudeste 0 -- -- 96
2019-08-23 01:00:00 16.7 5 Sur 9 Sur 0 -- -- 94
2019-08-23 00:00:00 17.6 6 Sur 14 Oeste 0 -- -- 92
2019-08-22 23:00:00 18.5 9 Oeste 16 Oeste 0 -- -- 91
2019-08-22 22:00:00 18.9 7 Oeste 10 Sudoeste 0 -- -- 88
2019-08-22 21:00:00 20.7 6 Este 21 Este 0 -- -- 82
2019-08-22 20:00:00 22 12 Este 23 Nordeste 0 -- -- 79
2019-08-22 19:00:00 22.6 14 Nordeste 35 Este 0 -- -- 78
2019-08-22 18:00:00 23.4 19 Este 38 Nordeste 0 -- -- 77
2019-08-22 17:00:00 23.3 21 Este 32 Este 0 -- -- 78
2019-08-22 16:00:00 22.9 19 Nordeste 35 Este 0 -- -- 78
2019-08-22 15:00:00 23.1 18 Nordeste 34 Nordeste 0 -- -- 76
2019-08-22 14:00:00 23 17 Nordeste 31 Nordeste 0 -- -- 76
2019-08-22 13:00:00 22.8 18 Nordeste 31 Este 0 -- -- 73
2019-08-22 12:00:00 22.5 7 Nordeste 13 Este 0 -- -- 70
2019-08-22 11:00:00 21.3 6 Este 13 Sudeste 0 -- -- 73
2019-08-22 10:00:00 19.2 0 Calma 5 Noroeste 0 -- -- 83
2019-08-22 09:00:00 17.1 3 Sur 8 Sudoeste 0 -- -- 98
2019-08-22 08:00:00 14.7 4 Sudoeste 9 Oeste 0 -- -- 97
2019-08-22 07:00:00 14.7 3 Sur 10 Sur 0 -- -- 97
2019-08-22 06:00:00 14.8 4 Sur 8 Sur 0 -- -- 96
2019-08-22 05:00:00 15.2 2 Sudoeste 10 Oeste 0 -- -- 96
2019-08-22 04:00:00 15.8 2 Sudoeste 8 Este 0 -- -- 95
2019-08-22 03:00:00 16.6 3 Sudeste 6 Sudeste 0 -- -- 96
2019-08-22 02:00:00 17 3 Nordeste 6 Nordeste 0 -- -- 95
2019-08-22 01:00:00 18.5 5 Este 16 Este 0 -- -- 94
2019-08-22 00:00:00 19.4 12 Este 18 Nordeste 0 -- -- 94
2019-08-21 23:00:00 19.4 11 Nordeste 25 Nordeste 0 -- -- 95
2019-08-21 22:00:00 19.5 10 Nordeste 25 Nordeste 0 -- -- 93
2019-08-21 21:00:00 19.6 13 Nordeste 29 Nordeste 0 -- -- 92
2019-08-21 20:00:00 19.9 15 Nordeste 29 Nordeste 0 -- -- 90
2019-08-21 19:00:00 20.3 15 Nordeste 31 Nordeste 0 -- -- 88
2019-08-21 18:00:00 20.7 15 Nordeste 30 Nordeste 0 -- -- 85
2019-08-21 17:00:00 21.1 15 Nordeste 29 Nordeste 0 -- -- 82
2019-08-21 16:00:00 21.5 19 Nordeste 42 Nordeste 0 -- -- 80
2019-08-21 15:00:00 22.5 18 Nordeste 28 Este 0 -- -- 75
2019-08-21 14:00:00 21.8 16 Nordeste 28 Nordeste 0 -- -- 75
2019-08-21 13:00:00 21.5 20 Nordeste 28 Nordeste 0 -- -- 72
2019-08-21 12:00:00 21.2 11 Nordeste 22 Nordeste 0 -- -- 70
2019-08-21 11:00:00 20 6 Norte 13 Nordeste 0 -- -- 71
2019-08-21 10:00:00 18.4 4 Norte 9 Oeste 0 -- -- 77
2019-08-21 09:00:00 14.5 4 Sudoeste 6 Sur 0 -- -- 91
2019-08-21 08:00:00 13.8 5 Sudeste 10 Sudeste 0 -- -- 90
2019-08-21 07:00:00 14 6 Sudeste 10 Sudeste 0 -- -- 88
2019-08-21 06:00:00 14.6 5 Sudeste 9 Sudeste 0 -- -- 87
2019-08-21 05:00:00 15.7 4 Sudeste 15 Este 0 -- -- 83
2019-08-21 04:00:00 17.3 6 Este 22 Este 0 -- -- 79
2019-08-21 03:00:00 18.1 15 Este 28 Nordeste 0 -- -- 79
2019-08-21 02:00:00 18.3 14 Este 25 Nordeste 0 -- -- 78
2019-08-21 01:00:00 18.3 15 Este 30 Este 0 -- -- 80
2019-08-21 00:00:00 18.5 14 Este 34 Este 0 -- -- 81
2019-08-20 23:00:00 19 18 Este 32 Este 0 -- -- 75
2019-08-20 22:00:00 19.3 20 Este 38 Este 0 -- -- 79
2019-08-20 21:00:00 19.5 24 Nordeste 40 Nordeste 0 -- -- 78
2019-08-20 20:00:00 20.1 26 Este 44 Este 0 -- -- 74
2019-08-20 19:00:00 20.8 22 Nordeste 41 Este 0 -- -- 71
2019-08-20 18:00:00 21.3 24 Este 40 Este 0 -- -- 70
2019-08-20 17:00:00 21.8 20 Nordeste 42 Nordeste 0 -- -- 66
2019-08-20 16:00:00 21.5 27 Este 42 Este 0 -- -- 69
2019-08-20 15:00:00 21.6 22 Nordeste 38 Este 0 -- -- 66
2019-08-20 14:00:00 21.4 19 Nordeste 37 Este 0 -- -- 69
2019-08-20 13:00:00 19.9 19 Nordeste 38 Nordeste 0 -- -- 74
2019-08-20 12:00:00 19.5 17 Nordeste 32 Nordeste 0.2 -- -- 77
2019-08-20 11:00:00 18.4 12 Este 21 Este 0.2 -- -- 84
2019-08-20 10:00:00 17.1 8 Este 24 Nordeste 0.4 -- -- 90
2019-08-20 09:00:00 17 12 Nordeste 22 Norte 0.6 -- -- 87
2019-08-20 08:00:00 16.9 10 Este 24 Este 0.6 -- -- 88
2019-08-20 07:00:00 16.6 8 Este 26 Nordeste 0.8 -- -- 90
2019-08-20 06:00:00 18 16 Nordeste 30 Este 0 -- -- 79
2019-08-20 05:00:00 17.8 17 Nordeste 32 Nordeste 0 -- -- 79
2019-08-20 04:00:00 16.6 7 Este 22 Este 0 -- -- 90
2019-08-20 03:00:00 16.9 7 Sudeste 26 Nordeste 1.4 -- -- 87
2019-08-20 02:00:00 18.5 14 Nordeste 28 Nordeste 0 -- -- 74
2019-08-20 01:00:00 18.3 13 Nordeste 26 Nordeste 0 -- -- 74
2019-08-20 00:00:00 17.8 14 Nordeste 30 Nordeste 0 -- -- 78
2019-08-19 23:00:00 17.8 14 Nordeste 27 Nordeste 0 -- -- 80
2019-08-19 22:00:00 18.3 12 Nordeste 24 Nordeste 0 -- -- 77
2019-08-19 21:00:00 18.6 12 Nordeste 24 Nordeste 0 -- -- 75
2019-08-19 20:00:00 19.6 13 Nordeste 24 Nordeste 0 -- -- 68
2019-08-19 19:00:00 19.9 14 Nordeste 24 Nordeste 0 -- -- 65
2019-08-19 18:00:00 20.4 14 Nordeste 26 Norte 0 -- -- 66
2019-08-19 17:00:00 20.8 14 Nordeste 25 Nordeste 0 -- -- 63
2019-08-19 16:00:00 20.8 14 Nordeste 26 Nordeste 0 -- -- 63
2019-08-19 15:00:00 20.4 15 Nordeste 27 Nordeste 0 -- -- 65
2019-08-19 14:00:00 20.5 14 Nordeste 23 Nordeste 0 -- -- 65
2019-08-19 13:00:00 20.9 12 Nordeste 23 Nordeste 0 -- -- 67
2019-08-19 12:00:00 19.4 6 Nordeste 13 Nordeste 0 -- -- 75
2019-08-19 11:00:00 17.5 3 Noroeste 8 Oeste 0 -- -- 82
2019-08-19 10:00:00 16.4 4 Sur 6 Sur 0 -- -- 87
2019-08-19 09:00:00 14.8 6 Sur 9 Sudeste 0 -- -- 91
2019-08-19 08:00:00 14.1 6 Sur 8 Sur 0 -- -- 93
2019-08-19 07:00:00 13.1 6 Sur 8 Sudeste 0 -- -- 94
2019-08-19 06:00:00 13.4 5 Sur 11 Sur 0 -- -- 92
2019-08-19 05:00:00 13.6 7 Sur 9 Sur 0 -- -- 91
2019-08-19 04:00:00 14.1 2 Sur 8 Oeste 0 -- -- 89
2019-08-19 03:00:00 14.1 4 Oeste 6 Oeste 0 -- -- 90
2019-08-19 02:00:00 14.1 0 Calma 6 Sur 0 -- -- 88
2019-08-19 01:00:00 14.5 3 Sur 5 Sur 0 -- -- 88
2019-08-19 00:00:00 15.3 2 Sudoeste 5 Sur 0 -- -- 84
2019-08-18 23:00:00 16.7 3 Sudoeste 8 Oeste 0 -- -- 78
2019-08-18 22:00:00 17.9 0 Calma 5 Norte 0 -- -- 80
2019-08-18 21:00:00 18.6 4 Noroeste 10 Noroeste 0 -- -- 70
2019-08-18 20:00:00 18.9 4 Norte 11 Noroeste 0 -- -- 68
2019-08-18 19:00:00 19.3 5 Norte 15 Noroeste 0 -- -- 66
2019-08-18 18:00:00 19.5 9 Noroeste 18 Noroeste 0 -- -- 67
2019-08-18 17:00:00 19.9 8 Noroeste 16 Norte 0 -- -- 68
2019-08-18 16:00:00 19.7 8 Noroeste 14 Norte 0 -- -- 72
2019-08-18 15:00:00 19.7 7 Noroeste 15 Noroeste 0 -- -- 71
2019-08-18 14:00:00 19.4 5 Norte 14 Noroeste 0 -- -- 71
2019-08-18 13:00:00 17.7 8 Sudoeste 15 Oeste 0 -- -- 85
2019-08-18 12:00:00 17.2 7 Oeste 17 Oeste 0.2 -- -- 92
2019-08-18 11:00:00 16.6 8 Noroeste 22 Noroeste 1.4 -- -- 97
2019-08-18 10:00:00 16.9 8 Oeste 14 Oeste 1.8 -- -- 97
2019-08-18 09:00:00 16.7 4 Sudoeste 15 Oeste 0 -- -- 96
2019-08-18 08:00:00 16.7 9 Oeste 26 Noroeste 2 -- -- 97
2019-08-18 07:00:00 17.2 13 Noroeste 30 Oeste 9.4 -- -- 97
2019-08-18 06:00:00 18.9 18 Oeste 37 Sudoeste 5 -- -- 93
2019-08-18 05:00:00 23.2 27 Sudoeste 49 Sudoeste 0 -- -- 64
2019-08-18 04:00:00 23.1 22 Sudoeste 48 Sudoeste 0 -- -- 64
2019-08-18 03:00:00 22.9 23 Sudoeste 45 Sudoeste 0 -- -- 66
2019-08-18 02:00:00 22.7 11 Sudeste 29 Sudeste 0 -- -- 67
2019-08-18 01:00:00 22.6 7 Sudoeste 30 Sudeste 0 -- -- 69
2019-08-18 00:00:00 22.5 4 Norte 17 Noroeste 0 -- -- 72
2019-08-17 23:00:00 23.2 5 Sur 15 Noroeste 0 -- -- 70
2019-08-17 22:00:00 22.6 6 Nordeste 11 Este 0 -- -- 77
2019-08-17 21:00:00 23.7 6 Este 18 Este 0 -- -- 76
2019-08-17 20:00:00 25.7 15 Este 27 Oeste 0 -- -- 68
2019-08-17 19:00:00 30.2 19 Oeste 38 Oeste 0 -- -- 51
2019-08-17 18:00:00 31 22 Oeste 41 Oeste 0 -- -- 48
2019-08-17 17:00:00 31.1 14 Sudoeste 36 Oeste 0 -- -- 49
2019-08-17 16:00:00 30.6 19 Sudoeste 44 Oeste 0 -- -- 50
2019-08-17 15:00:00 29.6 17 Sudoeste 43 Oeste 0 -- -- 54
2019-08-17 14:00:00 29.1 23 Oeste 37 Oeste 0 -- -- 56
2019-08-17 13:00:00 28.1 15 Sudoeste 35 Sudoeste 0 -- -- 59
2019-08-17 12:00:00 26.7 16 Sudoeste 31 Sudoeste 0 -- -- 61
2019-08-17 11:00:00 25 14 Sudoeste 38 Sur 0 -- -- 65
2019-08-17 10:00:00 22.9 22 Sur 44 Sur 0 -- -- 69
2019-08-17 09:00:00 21.7 26 Sur 40 Sur 0 -- -- 71
2019-08-17 08:00:00 20.6 21 Sur 32 Sur 0 -- -- 74
2019-08-17 07:00:00 20 7 Sur 38 Sudoeste 0 -- -- 76
2019-08-17 06:00:00 20.1 6 Sudoeste 26 Sudoeste 0 -- -- 77
2019-08-17 05:00:00 20.1 2 Norte 20 Sudoeste 0 -- -- 78
2019-08-17 04:00:00 20.8 4 Sudoeste 36 Sur 0 -- -- 75
2019-08-17 03:00:00 21.2 23 Sur 39 Sur 0 -- -- 74
2019-08-17 02:00:00 21.3 19 Sudoeste 34 Sur 0 -- -- 77
2019-08-17 01:00:00 17.7 2 Nordeste 5 Sudoeste 0 -- -- 92
2019-08-17 00:00:00 17.8 4 Sur 10 Sur 0 -- -- 91
2019-08-16 23:00:00 18.1 5 Sur 10 Sudoeste 0 -- -- 88
2019-08-16 22:00:00 19.3 4 Sudeste 10 Sudeste 0 -- -- 85
2019-08-16 21:00:00 21.2 7 Este 14 Este 0 -- -- 78
2019-08-16 20:00:00 22.5 9 Este 17 Nordeste 0 -- -- 73
2019-08-16 19:00:00 22.4 9 Este 16 Este 0 -- -- 71
2019-08-16 18:00:00 22.7 9 Nordeste 18 Nordeste 0 -- -- 69
2019-08-16 17:00:00 22.5 8 Nordeste 18 Nordeste 0 -- -- 71
2019-08-16 16:00:00 22.4 8 Norte 18 Noroeste 0 -- -- 71
2019-08-16 15:00:00 22 9 Norte 20 Noroeste 0 -- -- 72
2019-08-16 14:00:00 21.6 9 Norte 18 Norte 0 -- -- 72
2019-08-16 13:00:00 21.7 6 Nordeste 15 Noroeste 0 -- -- 71
2019-08-16 12:00:00 20.9 7 Norte 18 Noroeste 0 -- -- 74
2019-08-16 11:00:00 20.3 8 Noroeste 14 Noroeste 0 -- -- 76
2019-08-16 10:00:00 19.9 5 Sudeste 8 Sudeste 0 -- -- 75
2019-08-16 09:00:00 16.3 2 Oeste 8 Sudeste 0 -- -- 93
2019-08-16 08:00:00 13 3 Sur 15 Sudeste 0 -- -- 96
2019-08-16 07:00:00 12.9 12 Sur 14 Sur 0 -- -- 96
2019-08-16 06:00:00 13.3 11 Sur 13 Sudeste 0 -- -- 95
2019-08-16 05:00:00 13.4 6 Sur 14 Sudeste 0 -- -- 94
2019-08-16 04:00:00 13.4 11 Sur 17 Sur 0 -- -- 95
2019-08-16 03:00:00 13.4 8 Sur 12 Sur 0 -- -- 93
2019-08-16 02:00:00 13.9 8 Sur 12 Sudeste 0 -- -- 92
2019-08-16 01:00:00 14.4 11 Sudeste 14 Sudeste 0 -- -- 93
2019-08-16 00:00:00 14.4 4 Sur 9 Sur 0 -- -- 90
2019-08-15 23:00:00 15.6 6 Sur 10 Sudeste 0 -- -- 86
2019-08-15 22:00:00 17.6 4 Sudeste 14 Este 0 -- -- 79
2019-08-15 21:00:00 19.1 8 Nordeste 21 Nordeste 0 -- -- 73
2019-08-15 20:00:00 20.3 10 Nordeste 21 Este 0 -- -- 70
2019-08-15 19:00:00 20.9 13 Nordeste 23 Este 0 -- -- 67
2019-08-15 18:00:00 21.2 13 Nordeste 23 Nordeste 0 -- -- 67
2019-08-15 17:00:00 21.4 13 Nordeste 22 Nordeste 0 -- -- 67
2019-08-15 16:00:00 21.8 11 Nordeste 23 Norte 0 -- -- 68
2019-08-15 15:00:00 20.9 10 Norte 21 Norte 0 -- -- 69
2019-08-15 14:00:00 21.1 9 Nordeste 17 Nordeste 0 -- -- 67
2019-08-15 13:00:00 20.7 7 Norte 14 Norte 0 -- -- 70
2019-08-15 12:00:00 20.6 6 Norte 12 Noroeste 0 -- -- 74
2019-08-15 11:00:00 20.1 5 Nordeste 10 Este 0 -- -- 74
2019-08-15 10:00:00 19.6 4 Norte 8 Norte 0 -- -- 73
2019-08-15 09:00:00 18.1 0 Calma 12 Sur 0 -- -- 80
2019-08-15 08:00:00 16.8 9 Sur 15 Sur 0 -- -- 85
2019-08-15 07:00:00 17.1 2 Sur 8 Sudoeste 0 -- -- 85
2019-08-15 06:00:00 17.2 6 Sudoeste 9 Oeste 0 -- -- 82
2019-08-15 05:00:00 17.3 5 Sudoeste 7 Oeste 0 -- -- 85
2019-08-15 04:00:00 17.3 5 Oeste 9 Oeste 0 -- -- 87
2019-08-15 03:00:00 17.4 6 Oeste 15 Noroeste 0 -- -- 89
2019-08-15 02:00:00 17.9 6 Oeste 19 Noroeste 0 -- -- 86
2019-08-15 01:00:00 18.1 6 Oeste 15 Noroeste 0 -- -- 87
2019-08-15 00:00:00 18.3 9 Noroeste 21 Noroeste 0 -- -- 90
2019-08-14 23:00:00 18.4 8 Noroeste 23 Noroeste 0 -- -- 93
2019-08-14 22:00:00 18.9 9 Noroeste 20 Oeste 0 -- -- 93
2019-08-14 21:00:00 19.7 9 Oeste 28 Oeste 0 -- -- 92
2019-08-14 20:00:00 21.6 11 Oeste 23 Noroeste 0 -- -- 85
2019-08-14 19:00:00 22.6 9 Noroeste 26 Noroeste 0 -- -- 83
2019-08-14 18:00:00 23.4 5 Norte 13 Norte 0 -- -- 79
2019-08-14 17:00:00 22.6 0 Calma 9 Norte 0 -- -- 79
2019-08-14 16:00:00 22.6 5 Noroeste 10 Oeste 0 -- -- 76
2019-08-14 15:00:00 22.9 5 Noroeste 27 Oeste 0 -- -- 73
2019-08-14 14:00:00 25.9 10 Sudoeste 32 Sudoeste 0 -- -- 62
2019-08-14 13:00:00 23.7 13 Sudoeste 23 Sur 0 -- -- 67
2019-08-14 12:00:00 22.7 15 Sur 32 Sur 0 -- -- 63
2019-08-14 11:00:00 21.1 21 Sur 35 Sur 0 -- -- 55
2019-08-14 10:00:00 20.3 19 Sur 35 Sur 0 -- -- 57
2019-08-14 09:00:00 19.3 12 Sudoeste 27 Sudoeste 0 -- -- 61
2019-08-14 08:00:00 19.1 9 Oeste 29 Sudoeste 0 -- -- 66
2019-08-14 07:00:00 16.8 14 Sur 28 Sur 0 -- -- 73
2019-08-14 06:00:00 15.3 5 Sudeste 13 Oeste 0 -- -- 89
2019-08-14 05:00:00 15.5 8 Oeste 15 Sur 0 -- -- 87
2019-08-14 04:00:00 14.3 4 Sudoeste 12 Sur 0 -- -- 91
2019-08-14 03:00:00 14.8 4 Nordeste 15 Sur 0 -- -- 91
2019-08-14 02:00:00 15.4 11 Sur 15 Sur 0 -- -- 91
2019-08-14 01:00:00 15.1 5 Sur 11 Sudeste 0 -- -- 91
2019-08-14 00:00:00 15.6 7 Sur 11 Sudeste 0 -- -- 90
2019-08-13 23:00:00 16.2 3 Sudoeste 6 Sur 0 -- -- 88
2019-08-13 22:00:00 17.5 4 Sur 15 Nordeste 0 -- -- 82
2019-08-13 21:00:00 19 7 Nordeste 19 Nordeste 0 -- -- 75
2019-08-13 20:00:00 20.1 11 Nordeste 24 Nordeste 0 -- -- 70
2019-08-13 19:00:00 20.7 13 Nordeste 26 Nordeste 0 -- -- 69
2019-08-13 18:00:00 21 14 Nordeste 25 Este 0 -- -- 68
2019-08-13 17:00:00 20.9 14 Nordeste 25 Este 0 -- -- 68
2019-08-13 16:00:00 21 14 Nordeste 25 Este 0 -- -- 65
2019-08-13 15:00:00 20.9 15 Nordeste 24 Este 0 -- -- 67
2019-08-13 14:00:00 20.8 10 Nordeste 19 Nordeste 0 -- -- 68
2019-08-13 13:00:00 20.3 8 Norte 18 Norte 0 -- -- 67
2019-08-13 12:00:00 19.8 6 Nordeste 13 Nordeste 0 -- -- 66
2019-08-13 11:00:00 19.2 5 Nordeste 9 Nordeste 0 -- -- 71
2019-08-13 10:00:00 17.3 3 Noroeste 6 Noroeste 0 -- -- 79
2019-08-13 09:00:00 15.2 0 Calma 5 Sur 0 -- -- 94
2019-08-13 08:00:00 12 5 Sur 13 Sur 0 -- -- 96
2019-08-13 07:00:00 11.8 10 Sur 12 Sur 0 -- -- 96
2019-08-13 06:00:00 11.5 3 Sur 8 Sudeste 0 -- -- 94
2019-08-13 05:00:00 11.8 3 Sur 7 Sudeste 0 -- -- 93
2019-08-13 04:00:00 12.3 2 Sudoeste 6 Sudeste 0 -- -- 93
2019-08-13 03:00:00 12.5 5 Sudeste 8 Sudeste 0 -- -- 92
2019-08-13 02:00:00 12.8 6 Sur 9 Sudeste 0 -- -- 90
2019-08-13 01:00:00 13.6 7 Sur 9 Sudeste 0 -- -- 88
2019-08-13 00:00:00 -- -- -- -- -- -- -- -- --
2019-08-12 23:00:00 -- -- -- -- -- -- -- -- --
2019-08-12 22:00:00 -- -- -- -- -- -- -- -- --
2019-08-12 21:00:00 -- -- -- -- -- -- -- -- --
2019-08-12 20:00:00 -- -- -- -- -- -- -- -- --
2019-08-12 19:00:00 -- -- -- -- -- -- -- -- --
2019-08-12 18:00:00 -- -- -- -- -- -- -- -- --
2019-08-12 17:00:00 -- -- -- -- -- -- -- -- --
2019-08-12 16:00:00 -- -- -- -- -- -- -- -- --
2019-08-12 15:00:00 -- -- -- -- -- -- -- -- --
2019-08-12 14:00:00 -- -- -- -- -- -- -- -- --
2019-08-12 13:00:00 -- -- -- -- -- -- -- -- --
2019-08-12 12:00:00 -- -- -- -- -- -- -- -- --
2019-08-12 11:00:00 -- -- -- -- -- -- -- -- --
2019-08-12 10:00:00 -- -- -- -- -- -- -- -- --
2019-08-12 09:00:00 -- -- -- -- -- -- -- -- --
2019-08-12 08:00:00 -- -- -- -- -- -- -- -- --
2019-08-12 07:00:00 -- -- -- -- -- -- -- -- --
2019-08-12 06:00:00 -- -- -- -- -- -- -- -- --
2019-08-12 05:00:00 -- -- -- -- -- -- -- -- --
2019-08-12 04:00:00 -- -- -- -- -- -- -- -- --
2019-08-12 03:00:00 -- -- -- -- -- -- -- -- --
2019-08-12 02:00:00 -- -- -- -- -- -- -- -- --
2019-08-12 01:00:00 -- -- -- -- -- -- -- -- --
2019-08-12 00:00:00 -- -- -- -- -- -- -- -- --
2019-08-11 23:00:00 -- -- -- -- -- -- -- -- --
2019-08-11 22:00:00 -- -- -- -- -- -- -- -- --
2019-08-11 21:00:00 -- -- -- -- -- -- -- -- --
2019-08-11 20:00:00 -- -- -- -- -- -- -- -- --
2019-08-11 19:00:00 -- -- -- -- -- -- -- -- --
2019-08-11 18:00:00 -- -- -- -- -- -- -- -- --
2019-08-11 17:00:00 -- -- -- -- -- -- -- -- --
2019-08-11 16:00:00 -- -- -- -- -- -- -- -- --
2019-08-11 15:00:00 -- -- -- -- -- -- -- -- --
2019-08-11 14:00:00 -- -- -- -- -- -- -- -- --
2019-08-11 13:00:00 -- -- -- -- -- -- -- -- --
2019-08-11 12:00:00 -- -- -- -- -- -- -- -- --
2019-08-11 11:00:00 20.2 14 Sur 24 Sudeste 0 -- -- 65
2019-08-11 10:00:00 18.2 15 Sur 24 Sur 0 -- -- 73
2019-08-11 09:00:00 17.3 12 Sur 15 Sur 0 -- -- 80
2019-08-11 08:00:00 13.7 4 Sur 7 Sur 0 -- -- 90
2019-08-11 07:00:00 14.3 6 Sur 13 Sur 0 -- -- 90
2019-08-11 06:00:00 15.3 6 Sudeste 10 Sur 0 -- -- 88
2019-08-11 05:00:00 15.5 4 Sur 8 Sur 0 -- -- 88
2019-08-11 04:00:00 16.1 4 Sur 9 Sudoeste 0 -- -- 86
2019-08-11 03:00:00 16.3 5 Sur 10 Sur 0 -- -- 82
2019-08-11 02:00:00 16.8 5 Sur 8 Sur 0 -- -- 81
2019-08-11 01:00:00 18 2 Sudoeste 5 Sur 0 -- -- 81
2019-08-11 00:00:00 18.5 4 Noroeste 13 Noroeste 0 -- -- 76
2019-08-10 23:00:00 18.8 4 Norte 13 Norte 0 -- -- 79
2019-08-10 22:00:00 18.9 8 Nordeste 18 Nordeste 0 -- -- 77
2019-08-10 21:00:00 19.3 11 Nordeste 19 Nordeste 0 -- -- 76
2019-08-10 20:00:00 20 13 Este 23 Este 0 -- -- 72
2019-08-10 19:00:00 21.4 8 Norte 27 Noroeste 0 -- -- 70
2019-08-10 18:00:00 21.5 14 Noroeste 28 Noroeste 0 -- -- 71
2019-08-10 17:00:00 22.1 9 Norte 22 Norte 0 -- -- 66
2019-08-10 16:00:00 22.2 12 Noroeste 24 Noroeste 0 -- -- 69
2019-08-10 15:00:00 22.4 11 Noroeste 23 Noroeste 0 -- -- 70
2019-08-10 14:00:00 23 11 Norte 27 Oeste 0 -- -- 64
2019-08-10 13:00:00 23.5 18 Oeste 34 Oeste 0 -- -- 48
2019-08-10 12:00:00 23.3 19 Sudoeste 32 Sudoeste 0 -- -- 52
2019-08-10 11:00:00 21.4 19 Sudoeste 33 Sudoeste 0 -- -- 59
2019-08-10 10:00:00 20.5 15 Sudoeste 29 Sur 0 -- -- 65
2019-08-10 09:00:00 18.9 14 Sudoeste 26 Sudoeste 0 -- -- 71
2019-08-10 08:00:00 18 15 Sur 29 Sudoeste 0 -- -- 74
2019-08-10 07:00:00 17.8 15 Sudoeste 26 Sur 0 -- -- 73
2019-08-10 06:00:00 18.1 15 Sudoeste 33 Sur 0 -- -- 72
2019-08-10 05:00:00 18.5 14 Sudoeste 32 Sur 0 -- -- 70
2019-08-10 04:00:00 18.5 10 Sur 25 Sur 0 -- -- 71
2019-08-10 03:00:00 18.7 12 Sudoeste 28 Sudoeste 0 -- -- 70
2019-08-10 02:00:00 19.1 12 Sudoeste 26 Sur 0 -- -- 69
2019-08-10 01:00:00 19.3 10 Sudoeste 26 Sudoeste 0 -- -- 69
2019-08-10 00:00:00 19.5 7 Sudoeste 31 Oeste 0 -- -- 67
2019-08-09 23:00:00 20.3 18 Oeste 32 Oeste 0 -- -- 63
2019-08-09 22:00:00 21 14 Sudoeste 44 Sudoeste 0 -- -- 61
2019-08-09 21:00:00 22.4 27 Sudoeste 49 Oeste 0 -- -- 55
2019-08-09 20:00:00 23.2 22 Sudoeste 46 Sudoeste 0 -- -- 55
2019-08-09 19:00:00 23.4 29 Oeste 59 Sudoeste 0 -- -- 60
2019-08-09 18:00:00 24.4 27 Sudoeste 58 Oeste 0 -- -- 52
2019-08-09 17:00:00 25.3 17 Sudoeste 60 Sudoeste 0 -- -- 48
2019-08-09 16:00:00 26.9 31 Sudoeste 62 Sudoeste 0 -- -- 43
2019-08-09 15:00:00 26.3 24 Sudoeste 76 Oeste 0 -- -- 52
2019-08-09 14:00:00 26.7 32 Sudoeste 61 Oeste 0 -- -- 47
2019-08-09 13:00:00 24.9 29 Sudoeste 66 Sudoeste 0 -- -- 54
2019-08-09 12:00:00 24.2 22 Sudoeste 58 Sudoeste 0 -- -- 57
2019-08-09 11:00:00 23.4 29 Sudoeste 53 Sur 0 -- -- 59
2019-08-09 10:00:00 22.2 27 Sudoeste 65 Sudoeste 0 -- -- 60
2019-08-09 09:00:00 21 23 Sur 58 Sur 0 -- -- 63
2019-08-09 08:00:00 20.5 22 Sur 45 Sudoeste 0 -- -- 66
2019-08-09 07:00:00 20.4 26 Sudoeste 62 Sur 0 -- -- 65
2019-08-09 06:00:00 20.3 19 Sudoeste 53 Sudoeste 0 -- -- 66
2019-08-09 05:00:00 20.4 22 Sudoeste 44 Sudoeste 0 -- -- 68
2019-08-09 04:00:00 20.6 24 Sudoeste 48 Sudoeste 0 -- -- 69
2019-08-09 03:00:00 21.3 18 Sudoeste 45 Oeste 0.2 -- -- 80
2019-08-09 02:00:00 21.6 28 Sudoeste 47 Oeste 0.4 -- -- 86
2019-08-09 01:00:00 25.8 15 Sudoeste 51 Sudoeste 0 -- -- 67
2019-08-09 00:00:00 26.6 19 Sudoeste 47 Sur 0 -- -- 63
2019-08-08 23:00:00 26.6 26 Sudoeste 56 Sudoeste 0 -- -- 62
2019-08-08 22:00:00 26.5 16 Sur 38 Sur 0 -- -- 62
2019-08-08 21:00:00 26.3 14 Sur 32 Sur 0 -- -- 65
2019-08-08 20:00:00 26.6 23 Sudoeste 57 Sudoeste 0 -- -- 66
2019-08-08 19:00:00 28.9 17 Sudoeste 53 Oeste 0 -- -- 58
2019-08-08 18:00:00 29.3 18 Sur 37 Sur 0 -- -- 61
2019-08-08 17:00:00 29 20 Sudoeste 40 Sur 0 -- -- 62
2019-08-08 16:00:00 29.9 18 Sur 48 Sudoeste 0 -- -- 63
2019-08-08 15:00:00 30 12 Sur 46 Sudoeste 0 -- -- 61
2019-08-08 14:00:00 29.8 19 Sudoeste 38 Sur 0 -- -- 57
2019-08-08 13:00:00 29.3 17 Sudoeste 45 Sur 0 -- -- 62
2019-08-08 12:00:00 28.4 24 Sur 51 Sur 0 -- -- 61
2019-08-08 11:00:00 27.3 14 Sur 30 Sur 0 -- -- 65
2019-08-08 10:00:00 26 13 Sur 33 Sudeste 0 -- -- 67
2019-08-08 09:00:00 23 5 Sur 15 Sur 0 -- -- 79
2019-08-08 08:00:00 20.6 5 Nordeste 10 Nordeste 0 -- -- 89
2019-08-08 07:00:00 19.9 4 Este 10 Este 0 -- -- 91
2019-08-08 06:00:00 20.3 5 Sudeste 11 Sudoeste 0 -- -- 87
2019-08-08 05:00:00 21.5 8 Sur 15 Sur 0 -- -- 80
2019-08-08 04:00:00 20.5 3 Sur 15 Sur 0 -- -- 88
2019-08-08 03:00:00 21.2 4 Sur 18 Sur 0.2 -- -- 84
2019-08-08 02:00:00 20.2 5 Este 13 Este 0 -- -- 95
2019-08-08 01:00:00 20.2 5 Este 17 Sudoeste 0.2 -- -- 95
2019-08-08 00:00:00 20.3 3 Sur 10 Este 1 -- -- 94
2019-08-07 23:00:00 20.6 2 Sur 11 Nordeste 0 -- -- 93
2019-08-07 22:00:00 20.6 4 Nordeste 10 Este 0 -- -- 95
2019-08-07 21:00:00 20.8 6 Este 13 Este 0 -- -- 94
2019-08-07 20:00:00 21.7 3 Sur 13 Sur 1 -- -- 92
2019-08-07 19:00:00 22 6 Sudoeste 19 Sur 1.8 -- -- 86
2019-08-07 18:00:00 22.4 6 Este 18 Sur 0 -- -- 84
2019-08-07 17:00:00 22 6 Este 17 Este 0 -- -- 85
2019-08-07 16:00:00 21.2 12 Este 22 Nordeste 0 -- -- 88
2019-08-07 15:00:00 21.8 4 Nordeste 16 Nordeste 0.8 -- -- 87
2019-08-07 14:00:00 23.7 7 Nordeste 15 Norte 0 -- -- 75
2019-08-07 13:00:00 24.5 7 Nordeste 15 Nordeste 0 -- -- 70
2019-08-07 12:00:00 24 5 Nordeste 11 Nordeste 0 -- -- 72
2019-08-07 11:00:00 23.1 3 Norte 11 Norte 0 -- -- 77
2019-08-07 10:00:00 22.4 5 Norte 10 Nordeste 0 -- -- 76
2019-08-07 09:00:00 20.5 4 Sur 25 Sur 0 -- -- 81
2019-08-07 08:00:00 18.4 17 Sur 24 Sur 0 -- -- 94
2019-08-07 07:00:00 17.3 6 Sur 9 Sur 0 -- -- 97
2019-08-07 06:00:00 17.6 0 Calma 8 Oeste 0 -- -- 96
2019-08-07 05:00:00 18.7 3 Sudeste 7 Nordeste 0 -- -- 96
2019-08-07 04:00:00 19 6 Nordeste 12 Nordeste 0 -- -- 97
2019-08-07 03:00:00 19.2 4 Este 9 Sudeste 0 -- -- 96
2019-08-07 02:00:00 19.2 0 Calma 4 Norte 0.2 -- -- 95
2019-08-07 01:00:00 19.4 2 Norte 5 Noroeste 0 -- -- 95
2019-08-07 00:00:00 19.5 2 Este 4 Norte 0 -- -- 94
2019-08-06 23:00:00 19.5 2 Noroeste 4 Norte 0 -- -- 94
2019-08-06 22:00:00 19.6 0 Calma 8 Noroeste 0 -- -- 95
2019-08-06 21:00:00 19.7 3 Nordeste 13 Noroeste 0 -- -- 95
2019-08-06 20:00:00 20.5 4 Norte 13 Nordeste 0.2 -- -- 93
2019-08-06 19:00:00 21 4 Este 10 Este 0.2 -- -- 93
2019-08-06 18:00:00 21.3 7 Nordeste 12 Nordeste 0 -- -- 90
2019-08-06 17:00:00 23 8 Nordeste 13 Nordeste 0 -- -- 78
2019-08-06 16:00:00 23.1 4 Noroeste 15 Noroeste 0 -- -- 76
2019-08-06 15:00:00 23.5 5 Noroeste 23 Oeste 0 -- -- 75
2019-08-06 14:00:00 26.3 15 Oeste 23 Oeste 0 -- -- 61
2019-08-06 13:00:00 24 7 Nordeste 12 Norte 0 -- -- 72
2019-08-06 12:00:00 23.7 5 Nordeste 21 Sudoeste 0 -- -- 73
2019-08-06 11:00:00 23.4 4 Noroeste 23 Sudoeste 0 -- -- 70
2019-08-06 10:00:00 21 2 Este 5 Este 0 -- -- 83
2019-08-06 09:00:00 19.8 3 Oeste 8 Oeste 0 -- -- 88
2019-08-06 08:00:00 18.4 4 Sudoeste 10 Oeste 0 -- -- 91
2019-08-06 07:00:00 18.4 2 Sudoeste 10 Sudeste 0 -- -- 91
2019-08-06 06:00:00 18.1 4 Sur 7 Sudeste 0 -- -- 94
2019-08-06 05:00:00 17.7 5 Sur 8 Sur 0 -- -- 95
2019-08-06 04:00:00 17.2 6 Sur 11 Sur 0 -- -- 95
2019-08-06 03:00:00 17.1 4 Sur 7 Sur 0 -- -- 93
2019-08-06 02:00:00 17.7 4 Sur 11 Sudeste 0 -- -- 94
2019-08-06 01:00:00 17.1 4 Sur 9 Sur 0 -- -- 93
2019-08-06 00:00:00 17.6 3 Sur 8 Sur 0 -- -- 89
2019-08-05 23:00:00 18.8 8 Sur 9 Sudeste 0 -- -- 88
2019-08-05 22:00:00 20 3 Sur 8 Nordeste 0 -- -- 84
2019-08-05 21:00:00 20.9 4 Nordeste 11 Este 0 -- -- 79
2019-08-05 20:00:00 21.6 5 Nordeste 13 Nordeste 0 -- -- 78
2019-08-05 19:00:00 22.1 9 Nordeste 17 Este 0 -- -- 72
2019-08-05 18:00:00 22.7 10 Norte 19 Nordeste 0 -- -- 67
2019-08-05 17:00:00 23.6 10 Nordeste 21 Nordeste 0 -- -- 63
2019-08-05 16:00:00 23.7 12 Nordeste 21 Nordeste 0 -- -- 63
2019-08-05 15:00:00 23.5 12 Nordeste 20 Nordeste 0 -- -- 68
2019-08-05 14:00:00 23.5 10 Nordeste 17 Nordeste 0 -- -- 69
2019-08-05 13:00:00 24.4 8 Nordeste 15 Nordeste 0 -- -- 63
2019-08-05 12:00:00 24 7 Norte 14 Norte 0 -- -- 69
2019-08-05 11:00:00 22.5 5 Norte 18 Oeste 0 -- -- 73
2019-08-05 10:00:00 22 3 Sudoeste 11 Sur 0 -- -- 75
2019-08-05 09:00:00 19.8 2 Noroeste 12 Oeste 0 -- -- 84
2019-08-05 08:00:00 17.1 3 Noroeste 14 Sudeste 0 -- -- 92
2019-08-05 07:00:00 15.6 7 Sur 10 Sur 0 -- -- 96
2019-08-05 06:00:00 15.8 6 Sur 10 Sudoeste 0 -- -- 96
2019-08-05 05:00:00 16.2 2 Sudoeste 9 Sur 0 -- -- 95
2019-08-05 04:00:00 16.3 6 Sur 8 Sur 0 -- -- 94
2019-08-05 03:00:00 16.9 6 Sur 9 Sur 0 -- -- 92
2019-08-05 02:00:00 17.7 4 Sur 7 Sudeste 0 -- -- 91
2019-08-05 01:00:00 18.5 4 Sur 6 Sudeste 0 -- -- 90
2019-08-05 00:00:00 18.8 2 Sur 3 Sur 0 -- -- 89
2019-08-04 23:00:00 19.1 2 Oeste 5 Norte 0 -- -- 87
2019-08-04 22:00:00 19.6 0 Calma 8 Nordeste 0 -- -- 84
2019-08-04 21:00:00 20 5 Norte 9 Noroeste 0 -- -- 83
2019-08-04 20:00:00 20.4 5 Noroeste 12 Noroeste 0 -- -- 81
2019-08-04 19:00:00 21 7 Noroeste 14 Noroeste 0 -- -- 79
2019-08-04 18:00:00 21.2 8 Noroeste 16 Norte 0 -- -- 81
2019-08-04 17:00:00 21.1 9 Noroeste 23 Noroeste 0 -- -- 82
2019-08-04 16:00:00 23 9 Noroeste 21 Noroeste 0 -- -- 81
2019-08-04 15:00:00 22.9 11 Noroeste 17 Noroeste 0 -- -- 78
2019-08-04 14:00:00 22.5 10 Norte 18 Norte 0 -- -- 78
2019-08-04 13:00:00 22.7 6 Norte 12 Norte 0 -- -- 77
2019-08-04 12:00:00 21.3 5 Norte 11 Norte 0 -- -- 83
2019-08-04 11:00:00 20.2 0 Calma 9 Este 0 -- -- 88
2019-08-04 10:00:00 19.6 0 Calma 4 Oeste 0 -- -- 93
2019-08-04 09:00:00 19.3 2 Noroeste 5 Noroeste 0 -- -- 94
2019-08-04 08:00:00 19 2 Sudoeste 6 Noroeste 0 -- -- 96
2019-08-04 07:00:00 19.1 3 Noroeste 10 Oeste 0 -- -- 96
2019-08-04 06:00:00 19.1 4 Oeste 9 Oeste 0 -- -- 97
2019-08-04 05:00:00 19.1 6 Oeste 8 Oeste 0 -- -- 97
2019-08-04 04:00:00 19 3 Sudoeste 6 Sudoeste 0 -- -- 97
2019-08-04 03:00:00 18.9 5 Oeste 9 Oeste 0 -- -- 96
2019-08-04 02:00:00 18.9 5 Oeste 9 Oeste 0 -- -- 96
2019-08-04 01:00:00 19 6 Oeste 10 Oeste 0 -- -- 96
2019-08-04 00:00:00 18.7 8 Oeste 9 Oeste 0 -- -- 96
2019-08-03 23:00:00 19 4 Oeste 8 Oeste 0 -- -- 94
2019-08-03 22:00:00 20 5 Oeste 10 Oeste 0 -- -- 93
2019-08-03 21:00:00 20.3 4 Noroeste 12 Noroeste 0 -- -- 91
2019-08-03 20:00:00 21 7 Noroeste 12 Noroeste 0 -- -- 88
2019-08-03 19:00:00 21.3 7 Noroeste 19 Noroeste 0 -- -- 88
2019-08-03 18:00:00 21.7 9 Noroeste 19 Noroeste 0 -- -- 86
2019-08-03 17:00:00 22 11 Noroeste 20 Norte 0 -- -- 84
2019-08-03 16:00:00 22.5 10 Noroeste 19 Norte 0 -- -- 81
2019-08-03 15:00:00 23.6 9 Norte 19 Noroeste 0 -- -- 73
2019-08-03 14:00:00 23.1 9 Norte 15 Noroeste 0 -- -- 76
2019-08-03 13:00:00 23.2 8 Norte 15 Nordeste 0 -- -- 73
2019-08-03 12:00:00 22.5 6 Norte 14 Norte 0 -- -- 73
2019-08-03 11:00:00 21.7 5 Sudoeste 13 Sudeste 0 -- -- 78
2019-08-03 10:00:00 20.3 3 Oeste 11 Sur 0 -- -- 84
2019-08-03 09:00:00 19.2 4 Sudeste 9 Sur 0 -- -- 90
2019-08-03 08:00:00 18.5 3 Sur 6 Este 0 -- -- 95
2019-08-03 07:00:00 18.8 5 Oeste 10 Oeste 0 -- -- 95
2019-08-03 06:00:00 18.7 3 Oeste 7 Sur 0 -- -- 96
2019-08-03 05:00:00 18.6 3 Oeste 6 Oeste 0 -- -- 96
2019-08-03 04:00:00 18.4 2 Sur 6 Oeste 0 -- -- 96
2019-08-03 03:00:00 18.4 5 Oeste 6 Oeste 0 -- -- 96
2019-08-03 02:00:00 18.2 4 Sudoeste 6 Oeste 0 -- -- 94
2019-08-03 01:00:00 19 3 Oeste 5 Sudoeste 0 -- -- 94
2019-08-03 00:00:00 19.2 0 Calma 5 Oeste 0 -- -- 95
2019-08-02 23:00:00 19 3 Oeste 5 Oeste 0 -- -- 94
2019-08-02 22:00:00 19.3 3 Nordeste 15 Este 0 -- -- 92
2019-08-02 21:00:00 20.2 10 Nordeste 26 Este 0 -- -- 89
2019-08-02 20:00:00 21.3 15 Nordeste 30 Este 0 -- -- 84
2019-08-02 19:00:00 22.1 14 Nordeste 26 Este 0 -- -- 81
2019-08-02 18:00:00 22.3 17 Nordeste 33 Este 0 -- -- 81
2019-08-02 17:00:00 22.7 18 Nordeste 32 Nordeste 0 -- -- 79
2019-08-02 16:00:00 23 18 Nordeste 28 Este 0 -- -- 75
2019-08-02 15:00:00 22.2 19 Nordeste 30 Este 0 -- -- 79
2019-08-02 14:00:00 22.3 14 Nordeste 26 Nordeste 0 -- -- 78
2019-08-02 13:00:00 21.5 14 Nordeste 24 Este 0 -- -- 79
2019-08-02 12:00:00 21.8 7 Norte 15 Nordeste 0 -- -- 74
2019-08-02 11:00:00 20.9 6 Norte 11 Nordeste 0 -- -- 78
2019-08-02 10:00:00 20.1 4 Nordeste 8 Nordeste 0 -- -- 79
2019-08-02 09:00:00 18.3 3 Noroeste 6 Sur 0 -- -- 93
2019-08-02 08:00:00 15.9 2 Sur 9 Sudeste 0 -- -- 97
2019-08-02 07:00:00 15.5 3 Sur 6 Sur 0 -- -- 96
2019-08-02 06:00:00 16.3 4 Oeste 8 Oeste 0 -- -- 96
2019-08-02 05:00:00 17.4 0 Calma 12 Este 0 -- -- 94
2019-08-02 04:00:00 18.4 6 Este 23 Este 0 -- -- 95
2019-08-02 03:00:00 18.7 12 Este 22 Nordeste 0 -- -- 96
2019-08-02 02:00:00 18.5 10 Este 15 Este 0 -- -- 96
2019-08-02 01:00:00 18.7 7 Nordeste 17 Este 0 -- -- 94
2019-08-02 00:00:00 19 8 Nordeste 17 Nordeste 0 -- -- 93
2019-08-01 23:00:00 18.9 7 Este 15 Este 0 -- -- 92
2019-08-01 22:00:00 19 8 Nordeste 18 Este 0 -- -- 92
2019-08-01 21:00:00 19.5 9 Nordeste 21 Nordeste 0 -- -- 91
2019-08-01 20:00:00 19.8 10 Nordeste 20 Nordeste 0 -- -- 89
2019-08-01 19:00:00 20.3 9 Nordeste 21 Nordeste 0 -- -- 86
2019-08-01 18:00:00 19.9 12 Nordeste 22 Nordeste 0 -- -- 86
2019-08-01 17:00:00 20.7 15 Nordeste 28 Este 0 -- -- 82
2019-08-01 16:00:00 19.8 5 Nordeste 19 Nordeste 0 -- -- 86
2019-08-01 15:00:00 19.9 12 Nordeste 30 Este 0 -- -- 84
2019-08-01 14:00:00 19.4 16 Nordeste 36 Nordeste 0 -- -- 87
2019-08-01 13:00:00 20.3 20 Nordeste 36 Nordeste 0 -- -- 83
2019-08-01 12:00:00 20.6 20 Nordeste 33 Este 0 -- -- 83
2019-08-01 11:00:00 20.6 17 Nordeste 35 Nordeste 0 -- -- 80
2019-08-01 10:00:00 20.4 18 Este 33 Nordeste 0 -- -- 79
2019-08-01 09:00:00 19.3 18 Este 28 Este 0 -- -- 83
2019-08-01 08:00:00 18.4 11 Este 29 Nordeste 0 -- -- 85
2019-08-01 07:00:00 18.5 14 Nordeste 25 Este 0 -- -- 85
2019-08-01 06:00:00 18.3 12 Nordeste 24 Nordeste 0 -- -- 85
2019-08-01 05:00:00 18.4 12 Este 26 Nordeste 0 -- -- 85
2019-08-01 04:00:00 18.5 14 Nordeste 24 Nordeste 0 -- -- 85
2019-08-01 03:00:00 18.5 13 Nordeste 25 Este 0 -- -- 85
2019-08-01 02:00:00 18.5 16 Nordeste 29 Este 0 -- -- 83
2019-08-01 01:00:00 18.5 13 Nordeste 28 Nordeste 0 -- -- 83
2019-08-01 00:00:00 18.4 14 Este 24 Este 0 -- -- 83
2019-07-31 23:00:00 18.5 14 Nordeste 26 Este 0 -- -- 84
2019-07-31 22:00:00 18.2 13 Nordeste 25 Este 0 -- -- 84
2019-07-31 21:00:00 18.7 11 Nordeste 25 Este 0 -- -- 82
2019-07-31 20:00:00 19.4 18 Nordeste 31 Este 0 -- -- 77
2019-07-31 19:00:00 20.5 17 Nordeste 34 Este 0 -- -- 73
2019-07-31 18:00:00 20.6 18 Nordeste 29 Nordeste 0 -- -- 72
2019-07-31 17:00:00 20.8 16 Nordeste 30 Este 0 -- -- 72
2019-07-31 16:00:00 20.7 17 Nordeste 29 Nordeste 0 -- -- 71
2019-07-31 15:00:00 21.5 17 Nordeste 30 Nordeste 0 -- -- 69
2019-07-31 14:00:00 19.8 15 Nordeste 27 Nordeste 0 -- -- 72
2019-07-31 13:00:00 20.1 10 Norte 19 Nordeste 0 -- -- 74
2019-07-31 12:00:00 19.3 8 Nordeste 14 Este 0 -- -- 71
2019-07-31 11:00:00 18.2 6 Nordeste 13 Nordeste 0 -- -- 75
2019-07-31 10:00:00 18.2 4 Nordeste 8 Nordeste 0 -- -- 78
2019-07-31 09:00:00 16.1 2 Sudeste 12 Sudeste 0 -- -- 88
2019-07-31 08:00:00 12 9 Sur 13 Sur 0 -- -- 96
2019-07-31 07:00:00 11.1 0 Calma 14 Sur 0 -- -- 95
2019-07-31 06:00:00 11.7 11 Sur 13 Sur 0 -- -- 96
2019-07-31 05:00:00 11.6 6 Sur 9 Sur 0 -- -- 95
2019-07-31 04:00:00 11.6 4 Sur 9 Sur 0 -- -- 93
2019-07-31 03:00:00 12.2 6 Sur 11 Sur 0 -- -- 92
2019-07-31 02:00:00 12.6 6 Sur 14 Sur 0 -- -- 90
2019-07-31 01:00:00 13.2 11 Sudeste 13 Sudeste 0 -- -- 89
2019-07-31 00:00:00 13.4 7 Sur 9 Sudeste 0 -- -- 89
2019-07-30 23:00:00 14.5 5 Sur 7 Sur 0 -- -- 85
2019-07-30 22:00:00 16.7 2 Sur 6 Noroeste 0 -- -- 77
2019-07-30 21:00:00 18.1 4 Norte 12 Norte 0 -- -- 67
2019-07-30 20:00:00 19 7 Noroeste 17 Noroeste 0 -- -- 64
2019-07-30 19:00:00 19.8 10 Noroeste 19 Noroeste 0 -- -- 64
2019-07-30 18:00:00 20.4 11 Noroeste 24 Noroeste 0 -- -- 62
2019-07-30 17:00:00 20.6 14 Noroeste 27 Norte 0 -- -- 60
2019-07-30 16:00:00 20.7 13 Norte 24 Norte 0 -- -- 59
2019-07-30 15:00:00 20.9 12 Norte 24 Noroeste 0 -- -- 59
2019-07-30 14:00:00 20.5 13 Noroeste 27 Noroeste 0 -- -- 62
2019-07-30 13:00:00 20.6 13 Norte 25 Noroeste 0 -- -- 64
2019-07-30 12:00:00 20.9 10 Noroeste 25 Sudoeste 0 -- -- 63
2019-07-30 11:00:00 20.1 13 Oeste 25 Oeste 0 -- -- 58
2019-07-30 10:00:00 18 9 Sudoeste 21 Sudoeste 0 -- -- 69
2019-07-30 09:00:00 16.5 10 Sudoeste 23 Sur 0 -- -- 72
2019-07-30 08:00:00 15.7 15 Sur 23 Sur 0 -- -- 76
2019-07-30 07:00:00 15.6 6 Sudoeste 26 Oeste 0 -- -- 76
2019-07-30 06:00:00 15.7 17 Sur 26 Sur 0 -- -- 74
2019-07-30 05:00:00 16 11 Sudoeste 21 Sur 0 -- -- 71
2019-07-30 04:00:00 15.6 15 Sur 26 Sur 0 -- -- 76
2019-07-30 03:00:00 16.1 10 Sudoeste 25 Sur 0 -- -- 74
2019-07-30 02:00:00 15.9 11 Sur 21 Sudoeste 0 -- -- 74
2019-07-30 01:00:00 16.4 10 Sudoeste 22 Sudoeste 0 -- -- 70
2019-07-30 00:00:00 16.8 13 Sudoeste 29 Sudoeste 0 -- -- 69
2019-07-29 23:00:00 17 10 Sudoeste 16 Sudoeste 0 -- -- 67
2019-07-29 22:00:00 17.8 5 Oeste 20 Oeste 0 -- -- 65
2019-07-29 21:00:00 18.9 17 Oeste 36 Oeste 0 -- -- 61
2019-07-29 20:00:00 20.6 21 Oeste 39 Oeste 0 -- -- 53
2019-07-29 19:00:00 22.2 24 Oeste 49 Oeste 0 -- -- 51
2019-07-29 18:00:00 22.7 30 Oeste 45 Oeste 0 -- -- 50
2019-07-29 17:00:00 23.4 28 Oeste 55 Sudoeste 0 -- -- 52
2019-07-29 16:00:00 23.3 32 Oeste 50 Oeste 0 -- -- 52
2019-07-29 15:00:00 23.5 29 Oeste 44 Oeste 0 -- -- 53
2019-07-29 14:00:00 23.7 24 Oeste 51 Oeste 0 -- -- 54
2019-07-29 13:00:00 21.7 26 Sudoeste 44 Oeste 0 -- -- 58
2019-07-29 12:00:00 22 24 Sudoeste 41 Sudoeste 0 -- -- 55
2019-07-29 11:00:00 20.9 26 Sudoeste 43 Sudoeste 0 -- -- 58
2019-07-29 10:00:00 19.9 21 Oeste 42 Oeste 0 -- -- 66
2019-07-29 09:00:00 19 21 Sudoeste 38 Oeste 0 -- -- 68
2019-07-29 08:00:00 18.2 13 Sudoeste 32 Sudoeste 0 -- -- 72
2019-07-29 07:00:00 18.6 15 Sudoeste 31 Oeste 0 -- -- 72
2019-07-29 06:00:00 18.5 12 Sudoeste 27 Sudeste 0 -- -- 74
2019-07-29 05:00:00 18.5 6 Sudeste 32 Oeste 0 -- -- 71
2019-07-29 04:00:00 19.3 9 Sudoeste 37 Sudoeste 0 -- -- 64
2019-07-29 03:00:00 19.2 9 Sur 33 Sudoeste 0 -- -- 56
2019-07-29 02:00:00 19.7 15 Sur 40 Sur 0 -- -- 55
2019-07-29 01:00:00 20.1 18 Sudoeste 39 Sudoeste 0 -- -- 54
2019-07-29 00:00:00 17.6 10 Sudoeste 18 Sudoeste 0 -- -- 66
2019-07-28 23:00:00 17.3 2 Sudoeste 12 Oeste 0 -- -- 89
2019-07-28 22:00:00 18.5 8 Oeste 10 Oeste 0 -- -- 86
2019-07-28 21:00:00 19.9 6 Noroeste 13 Nordeste 0 -- -- 82
2019-07-28 20:00:00 21.2 11 Nordeste 28 Nordeste 0 -- -- 77
2019-07-28 19:00:00 21.5 17 Nordeste 27 Este 0 -- -- 73
2019-07-28 18:00:00 22.6 15 Este 31 Este 0 -- -- 69
2019-07-28 17:00:00 22.2 17 Nordeste 29 Nordeste 0 -- -- 70
2019-07-28 16:00:00 21.5 18 Nordeste 30 Este 0 -- -- 69
2019-07-28 15:00:00 22.3 13 Nordeste 26 Este 0 -- -- 66
2019-07-28 14:00:00 21.6 10 Nordeste 22 Nordeste 0 -- -- 72
2019-07-28 13:00:00 21.2 10 Norte 20 Nordeste 0 -- -- 73
2019-07-28 12:00:00 20.6 6 Norte 14 Nordeste 0 -- -- 75
2019-07-28 11:00:00 20.4 7 Norte 12 Nordeste 0 -- -- 76
2019-07-28 10:00:00 19.1 3 Oeste 7 Nordeste 0 -- -- 78
2019-07-28 09:00:00 17.5 3 Sudeste 14 Sudeste 0 -- -- 88
2019-07-28 08:00:00 13.7 12 Sudeste 18 Sudeste 0 -- -- 96
2019-07-28 07:00:00 13.2 9 Sur 11 Sudeste 0 -- -- 96
2019-07-28 06:00:00 13.7 8 Sur 17 Sur 0 -- -- 96
2019-07-28 05:00:00 13.9 8 Sur 12 Sudeste 0 -- -- 96
2019-07-28 04:00:00 13.7 4 Sur 14 Sudeste 0 -- -- 95
2019-07-28 03:00:00 14 10 Sudeste 14 Sudeste 0 -- -- 96
2019-07-28 02:00:00 14 4 Sur 11 Sur 0 -- -- 95
2019-07-28 01:00:00 14.6 9 Sur 10 Sur 0 -- -- 93
2019-07-28 00:00:00 15.2 4 Sur 6 Sur 0 -- -- 93
2019-07-27 23:00:00 15.7 4 Sur 6 Sur 0 -- -- 90
2019-07-26 12:00:00 -- -- -- -- -- -- -- -- --
2019-07-26 11:00:00 20.7 11 Sudoeste 19 Oeste 0 -- -- 68
2019-07-26 10:00:00 20 13 Oeste 20 Oeste 0 -- -- 74
2019-07-26 09:00:00 19.1 6 Sudoeste 13 Sudoeste 0 -- -- 77
2019-07-26 08:00:00 18.4 7 Sudoeste 22 Sudoeste 0 -- -- 78
2019-07-26 07:00:00 17.8 13 Sudoeste 23 Sur 0 -- -- 80
2019-07-26 06:00:00 17.9 15 Sur 27 Sur 0 -- -- 80
2019-07-26 05:00:00 17.7 10 Sudoeste 19 Sur 0 -- -- 81
2019-07-26 04:00:00 17.7 13 Sur 21 Sur 0 -- -- 81
2019-07-26 03:00:00 17.7 12 Sur 20 Sur 0 -- -- 83
2019-07-26 02:00:00 16.7 6 Sudeste 11 Oeste 0 -- -- 92
2019-07-26 01:00:00 16.8 4 Sudoeste 6 Sur 0 -- -- 93
2019-07-26 00:00:00 17.4 4 Sur 12 Sudeste 0 -- -- 92